Terminal Aerodrome Forecast
Issued by NWS

Home | Current Version | Previous Version | Text Only | Print | Product List | Glossary On
Versions: 1 2 3 4 5 6 7 8 9 10 11 12 13 14 15
000
FTUS46 KHNX 031120
TAFVIS
TAF
KVIS 031120Z 0312/0412 VRB04KT P6SM FEW250
     FM032200 31010KT P6SM FEW250
     FM040400 VRB04KT P6SM FEW250=

USA.gov is the U.S. government's official web portal to all federal, state and local government web resources and services.